sensor_id;sensor_type;location;lat;lon;timestamp;pressure;altitude;pressure_sealevel;temperature
78225;BMP280;67498;53.650;10.090;2023-08-30T00:02:02;100748.16;;;13.73
78225;BMP280;67498;53.650;10.090;2023-08-30T00:04:28;100738.91;;;13.68
78225;BMP280;67498;53.650;10.090;2023-08-30T00:06:54;100737.41;;;13.67
78225;BMP280;67498;53.650;10.090;2023-08-30T00:09:19;100740.44;;;13.65
78225;BMP280;67498;53.650;10.090;2023-08-30T00:11:44;100727.53;;;13.58
78225;BMP280;67498;53.650;10.090;2023-08-30T00:14:09;100731.59;;;13.59
78225;BMP280;67498;53.650;10.090;2023-08-30T00:16:36;100727.22;;;13.56
78225;BMP280;67498;53.650;10.090;2023-08-30T00:19:03;100731.31;;;13.57
78225;BMP280;67498;53.650;10.090;2023-08-30T00:21:28;100736.97;;;13.56
78225;BMP280;67498;53.650;10.090;2023-08-30T00:23:54;100725.91;;;13.48
78225;BMP280;67498;53.650;10.090;2023-08-30T00:26:19;100729.91;;;13.53
78225;BMP280;67498;53.650;10.090;2023-08-30T00:28:44;100727.38;;;13.49
78225;BMP280;67498;53.650;10.090;2023-08-30T00:31:10;100723.78;;;13.43
78225;BMP280;67498;53.650;10.090;2023-08-30T00:33:35;100733.47;;;13.46
78225;BMP280;67498;53.650;10.090;2023-08-30T00:36:00;100733.38;;;13.50
78225;BMP280;67498;53.650;10.090;2023-08-30T00:38:26;100719.38;;;13.40
78225;BMP280;67498;53.650;10.090;2023-08-30T00:40:52;100734.53;;;13.49
78225;BMP280;67498;53.650;10.090;2023-08-30T00:43:18;100727.56;;;13.42
78225;BMP280;67498;53.650;10.090;2023-08-30T00:45:44;100727.34;;;13.36
78225;BMP280;67498;53.650;10.090;2023-08-30T00:48:10;100729.63;;;13.34
78225;BMP280;67498;53.650;10.090;2023-08-30T00:50:36;100718.50;;;13.30
78225;BMP280;67498;53.650;10.090;2023-08-30T00:53:03;100729.63;;;13.34
78225;BMP280;67498;53.650;10.090;2023-08-30T00:55:32;100725.63;;;13.30
78225;BMP280;67498;53.650;10.090;2023-08-30T00:57:58;100723.41;;;13.28
78225;BMP280;67498;53.650;10.090;2023-08-30T01:00:24;100717.81;;;13.26
78225;BMP280;67498;53.650;10.090;2023-08-30T01:02:49;100714.66;;;13.18
78225;BMP280;67498;53.650;10.090;2023-08-30T01:05:14;100712.75;;;13.19
78225;BMP280;67498;53.650;10.090;2023-08-30T01:07:40;100710.97;;;13.16
78225;BMP280;67498;53.650;10.090;2023-08-30T01:10:05;100699.69;;;13.03
78225;BMP280;67498;53.650;10.090;2023-08-30T01:12:37;100708.53;;;13.09
78225;BMP280;67498;53.650;10.090;2023-08-30T01:15:13;100723.19;;;13.06
78225;BMP280;67498;53.650;10.090;2023-08-30T01:17:41;100718.03;;;13.03
78225;BMP280;67498;53.650;10.090;2023-08-30T01:20:08;100718.44;;;13.01
78225;BMP280;67498;53.650;10.090;2023-08-30T01:25:46;100697.00;;;12.90
78225;BMP280;67498;53.650;10.090;2023-08-30T01:28:13;100692.56;;;12.87
78225;BMP280;67498;53.650;10.090;2023-08-30T01:30:41;100685.44;;;12.87
78225;BMP280;67498;53.650;10.090;2023-08-30T01:33:07;100678.44;;;12.84
78225;BMP280;67498;53.650;10.090;2023-08-30T01:35:34;100689.53;;;12.88
78225;BMP280;67498;53.650;10.090;2023-08-30T01:38:03;100689.59;;;12.85
78225;BMP280;67498;53.650;10.090;2023-08-30T01:40:35;100671.50;;;12.74
78225;BMP280;67498;53.650;10.090;2023-08-30T01:43:02;100687.06;;;12.81
78225;BMP280;67498;53.650;10.090;2023-08-30T01:45:29;100686.75;;;12.79
78225;BMP280;67498;53.650;10.090;2023-08-30T01:47:56;100692.00;;;12.79
78225;BMP280;67498;53.650;10.090;2023-08-30T01:50:22;100689.38;;;12.79
78225;BMP280;67498;53.650;10.090;2023-08-30T01:52:48;100685.03;;;12.73
78225;BMP280;67498;53.650;10.090;2023-08-30T01:55:14;100688.72;;;12.75
78225;BMP280;67498;53.650;10.090;2023-08-30T01:57:40;100687.22;;;12.74
78225;BMP280;67498;53.650;10.090;2023-08-30T02:00:06;100678.03;;;12.69
78225;BMP280;67498;53.650;10.090;2023-08-30T02:02:33;100678.81;;;12.66
78225;BMP280;67498;53.650;10.090;2023-08-30T02:04:58;100673.00;;;12.59
78225;BMP280;67498;53.650;10.090;2023-08-30T02:07:37;100670.38;;;12.59
78225;BMP280;67498;53.650;10.090;2023-08-30T02:10:11;100671.53;;;12.58
78225;BMP280;67498;53.650;10.090;2023-08-30T02:12:47;100676.00;;;12.57
78225;BMP280;67498;53.650;10.090;2023-08-30T02:15:15;100679.81;;;12.56
78225;BMP280;67498;53.650;10.090;2023-08-30T02:17:41;100677.34;;;12.49
78225;BMP280;67498;53.650;10.090;2023-08-30T02:20:09;100671.75;;;12.47
78225;BMP280;67498;53.650;10.090;2023-08-30T02:22:34;100677.72;;;12.48
78225;BMP280;67498;53.650;10.090;2023-08-30T02:25:00;100677.72;;;12.48
78225;BMP280;67498;53.650;10.090;2023-08-30T02:27:30;100663.66;;;12.41
78225;BMP280;67498;53.650;10.090;2023-08-30T02:29:55;100673.66;;;12.46
78225;BMP280;67498;53.650;10.090;2023-08-30T02:32:21;100672.50;;;12.48
78225;BMP280;67498;53.650;10.090;2023-08-30T02:34:50;100666.19;;;12.45
78225;BMP280;67498;53.650;10.090;2023-08-30T02:37:15;100671.38;;;12.49
78225;BMP280;67498;53.650;10.090;2023-08-30T02:39:40;100669.88;;;12.48
78225;BMP280;67498;53.650;10.090;2023-08-30T02:42:06;100668.66;;;12.52
78225;BMP280;67498;53.650;10.090;2023-08-30T02:44:31;100669.06;;;12.51
78225;BMP280;67498;53.650;10.090;2023-08-30T02:46:56;100675.38;;;12.53
78225;BMP280;67498;53.650;10.090;2023-08-30T02:49:21;100660.91;;;12.49
78225;BMP280;67498;53.650;10.090;2023-08-30T02:51:47;100670.75;;;12.57
78225;BMP280;67498;53.650;10.090;2023-08-30T02:54:13;100674.16;;;12.58
78225;BMP280;67498;53.650;10.090;2023-08-30T02:56:40;100669.63;;;12.58
78225;BMP280;67498;53.650;10.090;2023-08-30T02:59:05;100669.97;;;12.60
78225;BMP280;67498;53.650;10.090;2023-08-30T03:01:30;100664.78;;;12.57
78225;BMP280;67498;53.650;10.090;2023-08-30T03:03:55;100666.13;;;12.65
78225;BMP280;67498;53.650;10.090;2023-08-30T03:06:21;100662.47;;;12.62
78225;BMP280;67498;53.650;10.090;2023-08-30T03:08:46;100664.97;;;12.66
78225;BMP280;67498;53.650;10.090;2023-08-30T03:11:12;100663.81;;;12.67
78225;BMP280;67498;53.650;10.090;2023-08-30T03:13:38;100655.00;;;12.61
78225;BMP280;67498;53.650;10.090;2023-08-30T03:16:14;100664.16;;;12.69
78225;BMP280;67498;53.650;10.090;2023-08-30T03:18:40;100662.34;;;12.66
78225;BMP280;67498;53.650;10.090;2023-08-30T03:21:07;100660.06;;;12.68
78225;BMP280;67498;53.650;10.090;2023-08-30T03:23:33;100664.47;;;12.71
78225;BMP280;67498;53.650;10.090;2023-08-30T03:25:59;100655.00;;;12.61
78225;BMP280;67498;53.650;10.090;2023-08-30T03:28:25;100667.59;;;12.66
78225;BMP280;67498;53.650;10.090;2023-08-30T03:30:50;100661.97;;;12.67
78225;BMP280;67498;53.650;10.090;2023-08-30T03:33:16;100658.91;;;12.69
78225;BMP280;67498;53.650;10.090;2023-08-30T03:35:41;100658.59;;;12.67
78225;BMP280;67498;53.650;10.090;2023-08-30T03:38:06;100659.97;;;12.71
78225;BMP280;67498;53.650;10.090;2023-08-30T03:40:32;100647.03;;;12.64
78225;BMP280;67498;53.650;10.090;2023-08-30T03:42:57;100653.81;;;12.78
78225;BMP280;67498;53.650;10.090;2023-08-30T03:45:23;100653.00;;;12.81
78225;BMP280;67498;53.650;10.090;2023-08-30T03:47:48;100655.97;;;12.83
78225;BMP280;67498;53.650;10.090;2023-08-30T03:50:13;100653.66;;;12.85
78225;BMP280;67498;53.650;10.090;2023-08-30T03:52:39;100642.78;;;12.87
78225;BMP280;67498;53.650;10.090;2023-08-30T03:55:04;100641.53;;;12.91
78225;BMP280;67498;53.650;10.090;2023-08-30T03:57:30;100636.63;;;12.93
78225;BMP280;67498;53.650;10.090;2023-08-30T03:59:55;100633.59;;;12.95
78225;BMP280;67498;53.650;10.090;2023-08-30T04:02:20;100621.75;;;12.90
78225;BMP280;67498;53.650;10.090;2023-08-30T04:04:48;100619.38;;;12.96
78225;BMP280;67498;53.650;10.090;2023-08-30T04:07:14;100618.50;;;12.99
78225;BMP280;67498;53.650;10.090;2023-08-30T04:09:40;100624.31;;;13.07
78225;BMP280;67498;53.650;10.090;2023-08-30T04:12:05;100619.81;;;13.07
78225;BMP280;67498;53.650;10.090;2023-08-30T04:14:31;100617.19;;;13.07
78225;BMP280;67498;53.650;10.090;2023-08-30T04:16:56;100620.97;;;13.06
78225;BMP280;67498;53.650;10.090;2023-08-30T04:19:21;100613.81;;;13.07
78225;BMP280;67498;53.650;10.090;2023-08-30T04:21:46;100610.47;;;13.06
78225;BMP280;67498;53.650;10.090;2023-08-30T04:24:12;100604.06;;;13.07
78225;BMP280;67498;53.650;10.090;2023-08-30T04:26:37;100594.75;;;13.06
78225;BMP280;67498;53.650;10.090;2023-08-30T04:29:02;100606.31;;;13.09
78225;BMP280;67498;53.650;10.090;2023-08-30T04:31:28;100600.94;;;13.12
78225;BMP280;67498;53.650;10.090;2023-08-30T04:33:54;100601.28;;;13.14
78225;BMP280;67498;53.650;10.090;2023-08-30T04:36:20;100601.59;;;13.16
78225;BMP280;67498;53.650;10.090;2023-08-30T04:38:46;100587.44;;;13.14
78225;BMP280;67498;53.650;10.090;2023-08-30T04:41:11;100584.09;;;13.13
78225;BMP280;67498;53.650;10.090;2023-08-30T04:43:36;100596.91;;;13.24
78225;BMP280;67498;53.650;10.090;2023-08-30T04:46:02;100599.03;;;13.29
78225;BMP280;67498;53.650;10.090;2023-08-30T04:48:27;100591.97;;;13.26
78225;BMP280;67498;53.650;10.090;2023-08-30T04:51:03;100594.41;;;13.33
78225;BMP280;67498;53.650;10.090;2023-08-30T04:53:29;100598.84;;;13.36
78225;BMP280;67498;53.650;10.090;2023-08-30T04:55:54;100592.94;;;13.32
78225;BMP280;67498;53.650;10.090;2023-08-30T04:58:20;100596.84;;;13.40
78225;BMP280;67498;53.650;10.090;2023-08-30T05:00:45;100600.53;;;13.43
78225;BMP280;67498;53.650;10.090;2023-08-30T05:03:10;100593.41;;;13.43
78225;BMP280;67498;53.650;10.090;2023-08-30T05:05:35;100606.63;;;13.53
78225;BMP280;67498;53.650;10.090;2023-08-30T05:08:01;100605.38;;;13.57
78225;BMP280;67498;53.650;10.090;2023-08-30T05:10:27;100601.16;;;13.60
78225;BMP280;67498;53.650;10.090;2023-08-30T05:12:52;100604.03;;;13.65
78225;BMP280;67498;53.650;10.090;2023-08-30T05:15:18;100592.78;;;13.65
78225;BMP280;67498;53.650;10.090;2023-08-30T05:17:43;100596.78;;;13.70
78225;BMP280;67498;53.650;10.090;2023-08-30T05:20:09;100601.41;;;13.78
78225;BMP280;67498;53.650;10.090;2023-08-30T05:22:34;100588.81;;;13.73
78225;BMP280;67498;53.650;10.090;2023-08-30T05:25:00;100596.69;;;13.86
78225;BMP280;67498;53.650;10.090;2023-08-30T05:27:26;100594.06;;;13.86
78225;BMP280;67498;53.650;10.090;2023-08-30T05:29:52;100598.38;;;13.92
78225;BMP280;67498;53.650;10.090;2023-08-30T05:32:17;100590.50;;;13.92
78225;BMP280;67498;53.650;10.090;2023-08-30T05:34:42;100604.13;;;14.00
78225;BMP280;67498;53.650;10.090;2023-08-30T05:37:08;100606.22;;;14.05
78225;BMP280;67498;53.650;10.090;2023-08-30T05:39:34;100601.53;;;14.13
78225;BMP280;67498;53.650;10.090;2023-08-30T05:41:59;100606.66;;;14.16
78225;BMP280;67498;53.650;10.090;2023-08-30T05:44:24;100589.75;;;14.18
78225;BMP280;67498;53.650;10.090;2023-08-30T05:46:50;100603.25;;;14.29
78225;BMP280;67498;53.650;10.090;2023-08-30T05:49:15;100605.81;;;14.32
78225;BMP280;67498;53.650;10.090;2023-08-30T05:51:40;100602.50;;;14.41
78225;BMP280;67498;53.650;10.090;2023-08-30T05:54:06;100605.34;;;14.47
78225;BMP280;67498;53.650;10.090;2023-08-30T05:56:31;100589.91;;;14.49
78225;BMP280;67498;53.650;10.090;2023-08-30T05:58:56;100584.69;;;14.58
78225;BMP280;67498;53.650;10.090;2023-08-30T06:01:22;100591.06;;;14.70
78225;BMP280;67498;53.650;10.090;2023-08-30T06:03:47;100588.44;;;14.70
78225;BMP280;67498;53.650;10.090;2023-08-30T06:06:13;100587.66;;;14.82
78225;BMP280;67498;53.650;10.090;2023-08-30T06:08:38;100586.09;;;14.84
78225;BMP280;67498;53.650;10.090;2023-08-30T06:11:03;100585.31;;;14.97
78225;BMP280;67498;53.650;10.090;2023-08-30T06:13:29;100577.47;;;15.06
78225;BMP280;67498;53.650;10.090;2023-08-30T06:15:54;100567.81;;;15.03
78225;BMP280;67498;53.650;10.090;2023-08-30T06:18:19;100571.53;;;15.14
78225;BMP280;67498;53.650;10.090;2023-08-30T06:20:45;100569.19;;;15.16
78225;BMP280;67498;53.650;10.090;2023-08-30T06:23:11;100571.16;;;15.25
78225;BMP280;67498;53.650;10.090;2023-08-30T06:25:36;100578.06;;;15.41
78225;BMP280;67498;53.650;10.090;2023-08-30T06:28:02;100565.41;;;15.58
78225;BMP280;67498;53.650;10.090;2023-08-30T06:30:28;100559.63;;;15.72
78225;BMP280;67498;53.650;10.090;2023-08-30T06:32:55;100568.56;;;15.84
78225;BMP280;67498;53.650;10.090;2023-08-30T06:35:20;100560.84;;;15.89
78225;BMP280;67498;53.650;10.090;2023-08-30T06:37:46;100558.22;;;16.08
78225;BMP280;67498;53.650;10.090;2023-08-30T06:40:11;100556.16;;;16.67
78225;BMP280;67498;53.650;10.090;2023-08-30T06:42:36;100556.59;;;17.59
78225;BMP280;67498;53.650;10.090;2023-08-30T06:45:03;100548.00;;;18.12
78225;BMP280;67498;53.650;10.090;2023-08-30T06:47:29;100562.06;;;18.18
78225;BMP280;67498;53.650;10.090;2023-08-30T06:49:54;100552.28;;;17.86
78225;BMP280;67498;53.650;10.090;2023-08-30T06:52:19;100558.97;;;17.72
78225;BMP280;67498;53.650;10.090;2023-08-30T06:54:45;100560.22;;;17.62
78225;BMP280;67498;53.650;10.090;2023-08-30T06:57:10;100543.09;;;17.57
78225;BMP280;67498;53.650;10.090;2023-08-30T06:59:35;100553.94;;;17.59
78225;BMP280;67498;53.650;10.090;2023-08-30T07:02:01;100540.19;;;17.55
78225;BMP280;67498;53.650;10.090;2023-08-30T07:04:27;100546.91;;;17.56
78225;BMP280;67498;53.650;10.090;2023-08-30T07:06:53;100543.38;;;17.59
78225;BMP280;67498;53.650;10.090;2023-08-30T07:09:18;100541.22;;;17.73
78225;BMP280;67498;53.650;10.090;2023-08-30T07:11:44;100539.53;;;17.84
78225;BMP280;67498;53.650;10.090;2023-08-30T07:14:10;100534.91;;;17.94
78225;BMP280;67498;53.650;10.090;2023-08-30T07:16:35;100542.53;;;18.16
78225;BMP280;67498;53.650;10.090;2023-08-30T07:19:01;100541.09;;;18.15
78225;BMP280;67498;53.650;10.090;2023-08-30T07:21:27;100539.91;;;18.16
78225;BMP280;67498;53.650;10.090;2023-08-30T07:23:52;100548.09;;;18.18
78225;BMP280;67498;53.650;10.090;2023-08-30T07:26:18;100526.19;;;18.03
78225;BMP280;67498;53.650;10.090;2023-08-30T07:28:43;100542.38;;;18.19
78225;BMP280;67498;53.650;10.090;2023-08-30T07:31:08;100541.69;;;18.25
78225;BMP280;67498;53.650;10.090;2023-08-30T07:33:35;100539.56;;;18.38
78225;BMP280;67498;53.650;10.090;2023-08-30T07:36:00;100538.47;;;18.44
78225;BMP280;67498;53.650;10.090;2023-08-30T07:38:25;100538.75;;;18.61
78225;BMP280;67498;53.650;10.090;2023-08-30T07:40:50;100545.00;;;18.79
78225;BMP280;67498;53.650;10.090;2023-08-30T07:43:16;100543.44;;;18.87
78225;BMP280;67498;53.650;10.090;2023-08-30T07:45:41;100543.56;;;19.13
78225;BMP280;67498;53.650;10.090;2023-08-30T07:48:06;100545.38;;;19.21
78225;BMP280;67498;53.650;10.090;2023-08-30T07:50:32;100555.34;;;19.32
78225;BMP280;67498;53.650;10.090;2023-08-30T07:52:57;100562.13;;;19.33
78225;BMP280;67498;53.650;10.090;2023-08-30T07:55:22;100559.78;;;19.35
78225;BMP280;67498;53.650;10.090;2023-08-30T07:57:47;100560.28;;;19.39
78225;BMP280;67498;53.650;10.090;2023-08-30T08:00:13;100556.47;;;19.40
78225;BMP280;67498;53.650;10.090;2023-08-30T08:02:39;100562.63;;;19.52
78225;BMP280;67498;53.650;10.090;2023-08-30T08:05:04;100569.69;;;19.61
78225;BMP280;67498;53.650;10.090;2023-08-30T08:07:30;100556.44;;;19.61
78225;BMP280;67498;53.650;10.090;2023-08-30T08:09:56;100554.53;;;19.61
78225;BMP280;67498;53.650;10.090;2023-08-30T08:12:22;100559.38;;;19.63
78225;BMP280;67498;53.650;10.090;2023-08-30T08:14:47;100559.44;;;19.68
78225;BMP280;67498;53.650;10.090;2023-08-30T08:17:12;100554.72;;;19.78
78225;BMP280;67498;53.650;10.090;2023-08-30T08:19:37;100554.78;;;19.84
78225;BMP280;67498;53.650;10.090;2023-08-30T08:22:05;100561.88;;;19.92
78225;BMP280;67498;53.650;10.090;2023-08-30T08:24:30;100568.88;;;19.95
78225;BMP280;67498;53.650;10.090;2023-08-30T08:26:55;100571.53;;;19.95
78225;BMP280;67498;53.650;10.090;2023-08-30T08:29:21;100563.53;;;19.90
78225;BMP280;67498;53.650;10.090;2023-08-30T08:31:46;100558.94;;;19.90
78225;BMP280;67498;53.650;10.090;2023-08-30T08:34:12;100567.75;;;20.02
78225;BMP280;67498;53.650;10.090;2023-08-30T08:36:39;100565.41;;;20.10
78225;BMP280;67498;53.650;10.090;2023-08-30T08:39:05;100555.53;;;20.10
78225;BMP280;67498;53.650;10.090;2023-08-30T08:41:38;100559.22;;;20.18
78225;BMP280;67498;53.650;10.090;2023-08-30T08:44:05;100571.13;;;20.29
78225;BMP280;67498;53.650;10.090;2023-08-30T08:46:31;100556.66;;;20.30
78225;BMP280;67498;53.650;10.090;2023-08-30T08:48:58;100572.78;;;20.52
78225;BMP280;67498;53.650;10.090;2023-08-30T08:51:25;100564.97;;;20.74
78225;BMP280;67498;53.650;10.090;2023-08-30T08:53:51;100573.31;;;20.99
78225;BMP280;67498;53.650;10.090;2023-08-30T08:56:17;100567.81;;;21.08
78225;BMP280;67498;53.650;10.090;2023-08-30T08:58:43;100571.63;;;20.96
78225;BMP280;67498;53.650;10.090;2023-08-30T09:01:09;100577.03;;;20.75
78225;BMP280;67498;53.650;10.090;2023-08-30T09:03:34;100566.56;;;20.61
78225;BMP280;67498;53.650;10.090;2023-08-30T09:06:01;100564.06;;;20.51
78225;BMP280;67498;53.650;10.090;2023-08-30T09:08:27;100574.47;;;20.55
78225;BMP280;67498;53.650;10.090;2023-08-30T09:10:52;100571.09;;;20.54
78225;BMP280;67498;53.650;10.090;2023-08-30T09:13:18;100572.97;;;20.48
78225;BMP280;67498;53.650;10.090;2023-08-30T09:15:44;100578.50;;;20.45
78225;BMP280;67498;53.650;10.090;2023-08-30T09:18:16;100567.34;;;20.35
78225;BMP280;67498;53.650;10.090;2023-08-30T09:20:42;100575.00;;;20.33
78225;BMP280;67498;53.650;10.090;2023-08-30T09:23:16;100575.13;;;20.18
78225;BMP280;67498;53.650;10.090;2023-08-30T09:25:42;100565.47;;;20.15
78225;BMP280;67498;53.650;10.090;2023-08-30T09:28:09;100564.22;;;20.11
78225;BMP280;67498;53.650;10.090;2023-08-30T09:30:35;100576.00;;;20.10
78225;BMP280;67498;53.650;10.090;2023-08-30T09:33:01;100571.38;;;20.05
78225;BMP280;67498;53.650;10.090;2023-08-30T09:35:27;100574.22;;;20.01
78225;BMP280;67498;53.650;10.090;2023-08-30T09:37:53;100569.41;;;19.99
78225;BMP280;67498;53.650;10.090;2023-08-30T09:40:19;100564.34;;;20.01
78225;BMP280;67498;53.650;10.090;2023-08-30T09:42:45;100564.22;;;20.11
78225;BMP280;67498;53.650;10.090;2023-08-30T09:45:22;100570.34;;;20.22
78225;BMP280;67498;53.650;10.090;2023-08-30T09:47:49;100565.34;;;20.30
78225;BMP280;67498;53.650;10.090;2023-08-30T09:50:17;100562.03;;;20.35
78225;BMP280;67498;53.650;10.090;2023-08-30T09:52:43;100562.09;;;20.46
78225;BMP280;67498;53.650;10.090;2023-08-30T09:55:09;100558.03;;;20.51
78225;BMP280;67498;53.650;10.090;2023-08-30T09:57:35;100556.38;;;20.53
78225;BMP280;67498;53.650;10.090;2023-08-30T10:00:01;100557.56;;;20.52
78225;BMP280;67498;53.650;10.090;2023-08-30T10:02:29;100557.31;;;20.50
78225;BMP280;67498;53.650;10.090;2023-08-30T10:04:56;100554.19;;;20.52
78225;BMP280;67498;53.650;10.090;2023-08-30T10:07:22;100562.16;;;20.52
78225;BMP280;67498;53.650;10.090;2023-08-30T10:09:50;100546.91;;;20.47
78225;BMP280;67498;53.650;10.090;2023-08-30T10:12:16;100555.09;;;20.43
78225;BMP280;67498;53.650;10.090;2023-08-30T10:14:41;100559.41;;;20.41
78225;BMP280;67498;53.650;10.090;2023-08-30T10:17:08;100548.09;;;20.40
78225;BMP280;67498;53.650;10.090;2023-08-30T10:19:36;100543.22;;;20.39
78225;BMP280;67498;53.650;10.090;2023-08-30T10:22:06;100542.25;;;20.36
78225;BMP280;67498;53.650;10.090;2023-08-30T10:25:17;100553.06;;;20.33
78225;BMP280;67498;53.650;10.090;2023-08-30T10:27:46;100545.75;;;20.22
78225;BMP280;67498;53.650;10.090;2023-08-30T10:30:13;100556.09;;;20.20
78225;BMP280;67498;53.650;10.090;2023-08-30T10:32:40;100549.06;;;20.17
78225;BMP280;67498;53.650;10.090;2023-08-30T10:35:06;100547.88;;;20.18
78225;BMP280;67498;53.650;10.090;2023-08-30T10:37:31;100554.91;;;20.21
78225;BMP280;67498;53.650;10.090;2023-08-30T10:40:00;100557.31;;;20.24
78225;BMP280;67498;53.650;10.090;2023-08-30T10:42:27;100558.31;;;20.27
78225;BMP280;67498;53.650;10.090;2023-08-30T10:45:06;100553.75;;;20.27
78225;BMP280;67498;53.650;10.090;2023-08-30T10:47:36;100548.44;;;20.27
78225;BMP280;67498;53.650;10.090;2023-08-30T10:50:12;100547.97;;;20.29
78225;BMP280;67498;53.650;10.090;2023-08-30T10:52:38;100541.91;;;20.23
78225;BMP280;67498;53.650;10.090;2023-08-30T10:55:11;100547.72;;;20.27
78225;BMP280;67498;53.650;10.090;2023-08-30T10:57:37;100544.34;;;20.26
78225;BMP280;67498;53.650;10.090;2023-08-30T11:02:42;100545.78;;;20.27
78225;BMP280;67498;53.650;10.090;2023-08-30T11:05:08;100541.25;;;20.28
78225;BMP280;67498;53.650;10.090;2023-08-30T11:07:34;100536.00;;;20.39
78225;BMP280;67498;53.650;10.090;2023-08-30T11:09:59;100538.03;;;20.50
78225;BMP280;67498;53.650;10.090;2023-08-30T11:12:25;100530.81;;;20.56
78225;BMP280;67498;53.650;10.090;2023-08-30T11:14:51;100529.97;;;20.70
78225;BMP280;67498;53.650;10.090;2023-08-30T11:17:17;100529.06;;;20.79
78225;BMP280;67498;53.650;10.090;2023-08-30T11:19:43;100530.25;;;20.78
78225;BMP280;67498;53.650;10.090;2023-08-30T11:22:09;100515.78;;;20.79
78225;BMP280;67498;53.650;10.090;2023-08-30T11:24:35;100523.06;;;20.90
78225;BMP280;67498;53.650;10.090;2023-08-30T11:27:00;100520.91;;;20.94
78225;BMP280;67498;53.650;10.090;2023-08-30T11:29:26;100525.72;;;20.90
78225;BMP280;67498;53.650;10.090;2023-08-30T11:31:52;100526.41;;;20.85
78225;BMP280;67498;53.650;10.090;2023-08-30T11:34:20;100517.03;;;20.84
78225;BMP280;67498;53.650;10.090;2023-08-30T11:36:46;100509.75;;;20.78
78225;BMP280;67498;53.650;10.090;2023-08-30T11:39:13;100513.13;;;20.79
78225;BMP280;67498;53.650;10.090;2023-08-30T11:41:38;100522.50;;;20.74
78225;BMP280;67498;53.650;10.090;2023-08-30T11:44:04;100513.31;;;20.70
78225;BMP280;67498;53.650;10.090;2023-08-30T11:46:30;100511.31;;;20.59
78225;BMP280;67498;53.650;10.090;2023-08-30T11:48:55;100510.34;;;20.57
78225;BMP280;67498;53.650;10.090;2023-08-30T11:51:21;100507.72;;;20.62
78225;BMP280;67498;53.650;10.090;2023-08-30T11:53:46;100503.59;;;20.61
78225;BMP280;67498;53.650;10.090;2023-08-30T11:56:12;100503.66;;;20.72
78225;BMP280;67498;53.650;10.090;2023-08-30T11:58:38;100498.59;;;20.69
78225;BMP280;67498;53.650;10.090;2023-08-30T12:01:03;100498.91;;;20.82
78225;BMP280;67498;53.650;10.090;2023-08-30T12:03:30;100493.13;;;20.89
78225;BMP280;67498;53.650;10.090;2023-08-30T12:05:56;100488.16;;;21.02
78225;BMP280;67498;53.650;10.090;2023-08-30T12:08:24;100481.44;;;21.13
78225;BMP280;67498;53.650;10.090;2023-08-30T12:10:49;100482.38;;;21.10
78225;BMP280;67498;53.650;10.090;2023-08-30T12:15:56;100477.84;;;21.21
78225;BMP280;67498;53.650;10.090;2023-08-30T12:18:23;100480.50;;;21.32
78225;BMP280;67498;53.650;10.090;2023-08-30T12:20:56;100472.31;;;21.36
78225;BMP280;67498;53.650;10.090;2023-08-30T12:23:27;100474.72;;;21.40
78225;BMP280;67498;53.650;10.090;2023-08-30T12:26:31;100472.84;;;21.46
78225;BMP280;67498;53.650;10.090;2023-08-30T12:28:57;100484.44;;;21.48
78225;BMP280;67498;53.650;10.090;2023-08-30T12:31:22;100481.06;;;21.53
78225;BMP280;67498;53.650;10.090;2023-08-30T12:33:48;100481.31;;;21.61
78225;BMP280;67498;53.650;10.090;2023-08-30T12:36:13;100472.59;;;21.60
78225;BMP280;67498;53.650;10.090;2023-08-30T12:38:39;100472.88;;;21.74
78225;BMP280;67498;53.650;10.090;2023-08-30T12:41:04;100457.41;;;21.72
78225;BMP280;67498;53.650;10.090;2023-08-30T12:43:29;100466.84;;;21.73
78225;BMP280;67498;53.650;10.090;2023-08-30T12:45:54;100449.41;;;21.67
78225;BMP280;67498;53.650;10.090;2023-08-30T12:48:20;100456.91;;;21.63
78225;BMP280;67498;53.650;10.090;2023-08-30T12:50:47;100444.34;;;21.52
78225;BMP280;67498;53.650;10.090;2023-08-30T12:53:13;100454.25;;;21.57
78225;BMP280;67498;53.650;10.090;2023-08-30T12:55:38;100453.78;;;21.64
78225;BMP280;67498;53.650;10.090;2023-08-30T12:58:07;100446.03;;;21.60
78225;BMP280;67498;53.650;10.090;2023-08-30T13:00:33;100443.59;;;21.63
78225;BMP280;67498;53.650;10.090;2023-08-30T13:02:59;100430.31;;;21.68
78225;BMP280;67498;53.650;10.090;2023-08-30T13:05:24;100422.63;;;21.81
78225;BMP280;67498;53.650;10.090;2023-08-30T13:07:49;100429.84;;;21.92
78225;BMP280;67498;53.650;10.090;2023-08-30T13:10:15;100434.66;;;21.99
78225;BMP280;67498;53.650;10.090;2023-08-30T13:12:40;100407.38;;;21.93
78225;BMP280;67498;53.650;10.090;2023-08-30T13:15:06;100422.13;;;21.94
78225;BMP280;67498;53.650;10.090;2023-08-30T13:17:32;100420.66;;;21.93
78225;BMP280;67498;53.650;10.090;2023-08-30T13:19:57;100412.69;;;21.93
78225;BMP280;67498;53.650;10.090;2023-08-30T13:22:24;100417.50;;;22.00
78225;BMP280;67498;53.650;10.090;2023-08-30T13:24:49;100404.91;;;22.06
78225;BMP280;67498;53.650;10.090;2023-08-30T13:27:14;100411.22;;;22.09
78225;BMP280;67498;53.650;10.090;2023-08-30T13:29:39;100403.72;;;21.96
78225;BMP280;67498;53.650;10.090;2023-08-30T13:32:05;100405.66;;;22.01
78225;BMP280;67498;53.650;10.090;2023-08-30T13:34:30;100410.22;;;22.06
78225;BMP280;67498;53.650;10.090;2023-08-30T13:36:55;100415.28;;;22.16
78225;BMP280;67498;53.650;10.090;2023-08-30T13:39:21;100404.44;;;22.13
78225;BMP280;67498;53.650;10.090;2023-08-30T13:41:47;100411.19;;;22.14
78225;BMP280;67498;53.650;10.090;2023-08-30T13:44:15;100407.56;;;22.18
78225;BMP280;67498;53.650;10.090;2023-08-30T13:46:41;100410.44;;;22.25
78225;BMP280;67498;53.650;10.090;2023-08-30T13:49:06;100396.19;;;22.23